Time;durP1;ratioP1;P1;durP2;ratioP2;P2;SDS_P1;SDS_P2;PMS_P1;PMS_P2;Temp;Humidity;BMP_temperature;BMP_pressure;BME280_temperature;BME280_humidity;BME280_pressure;Samples;Min_cycle;Max_cycle;Signal;HPM_P1;HPM_P2
2021/04/30 00:00:10;;;;;;;12.77;6.37;;;6.70;1.00;;;;;;5093154;28;20164;-67
2021/04/30 00:02:37;;;;;;;13.18;5.43;;;6.70;99.90;;;;;;5093039;28;20171;-67
2021/04/30 00:05:04;;;;;;;25.23;7.07;;;6.90;99.90;;;;;;5092996;28;20588;-67
2021/04/30 00:07:30;;;;;;;13.27;5.78;;;6.80;99.90;;;;;;5092912;28;20171;-67
2021/04/30 00:09:55;;;;;;;7.80;6.13;;;7.00;99.90;;;;;;5092949;28;20167;-67
2021/04/30 00:12:21;;;;;;;9.83;5.37;;;6.70;99.90;;;;;;5096897;28;20171;-67
2021/04/30 00:14:47;;;;;;;11.17;5.23;;;6.90;99.90;;;;;;5097080;28;20183;-67
2021/04/30 00:17:12;;;;;;;12.50;7.20;;;7.00;99.90;;;;;;5097408;28;20168;-67
2021/04/30 00:19:38;;;;;;;11.77;5.67;;;7.00;99.90;;;;;;5097159;28;20564;-67
2021/04/30 00:22:03;;;;;;;19.83;7.33;;;7.10;99.90;;;;;;5096911;28;20168;-67
2021/04/30 00:24:29;;;;;;;8.20;6.13;;;7.10;99.90;;;;;;5096856;28;20244;-67
2021/04/30 00:26:55;;;;;;;9.90;5.97;;;6.90;99.90;;;;;;5097075;28;20573;-67
2021/04/30 00:29:20;;;;;;;10.63;6.77;;;6.90;99.90;;;;;;5097098;28;20431;-67
2021/04/30 00:31:46;;;;;;;12.40;6.80;;;7.00;99.90;;;;;;5097021;28;20164;-67
2021/04/30 00:34:12;;;;;;;17.10;5.97;;;6.90;99.90;;;;;;5096955;28;20214;-67
2021/04/30 00:36:37;;;;;;;10.80;6.30;;;6.70;99.90;;;;;;5096989;28;20229;-67
2021/04/30 00:39:04;;;;;;;9.27;5.97;;;6.90;99.90;;;;;;5096836;28;20622;-67
2021/04/30 00:41:30;;;;;;;12.15;6.22;;;6.90;99.90;;;;;;5096860;28;20167;-67
2021/04/30 00:43:57;;;;;;;8.07;5.60;;;6.90;99.90;;;;;;5096472;28;20183;-67
2021/04/30 00:46:23;;;;;;;8.00;5.95;;;6.80;99.90;;;;;;5096721;28;20397;-67
2021/04/30 00:48:49;;;;;;;9.50;5.43;;;6.90;99.90;;;;;;5096454;28;20671;-67
2021/04/30 00:51:14;;;;;;;9.57;5.03;;;7.00;99.90;;;;;;5096379;28;20417;-67
2021/04/30 00:53:40;;;;;;;15.53;5.80;;;6.90;99.90;;;;;;5096258;28;20261;-67
2021/04/30 00:56:05;;;;;;;13.77;5.80;;;6.70;99.90;;;;;;5096738;28;20175;-67
2021/04/30 00:58:31;;;;;;;12.60;5.83;;;6.90;99.90;;;;;;5096435;28;20713;-67
2021/04/30 01:00:57;;;;;;;11.37;5.73;;;6.90;99.90;;;;;;5096986;28;20171;-67
2021/04/30 01:03:23;;;;;;;11.20;5.60;;;6.60;1.00;;;;;;5096811;28;20180;-68
2021/04/30 01:05:48;;;;;;;10.95;5.13;;;6.80;1.00;;;;;;5096305;28;20262;-68
2021/04/30 01:08:14;;;;;;;8.47;5.97;;;6.80;99.90;;;;;;5095980;28;20207;-68
2021/04/30 01:10:39;;;;;;;7.90;5.20;;;6.80;1.00;;;;;;5096549;28;20528;-68
2021/04/30 01:13:05;;;;;;;8.57;4.60;;;6.70;99.90;;;;;;5095962;28;20175;-68
2021/04/30 01:15:31;;;;;;;9.30;5.03;;;6.70;1.00;;;;;;5095949;28;20178;-68
2021/04/30 01:17:56;;;;;;;9.90;5.40;;;6.90;1.00;;;;;;5096195;28;20225;-68
2021/04/30 01:20:22;;;;;;;10.37;5.80;;;7.00;99.90;;;;;;5095863;28;20599;-68
2021/04/30 01:22:53;;;;;;;8.43;4.60;;;7.10;99.90;;;;;;5095097;28;20217;-68
2021/04/30 01:25:21;;;;;;;9.57;5.40;;;6.80;99.90;;;;;;5095773;28;20186;-68
2021/04/30 01:27:47;;;;;;;9.27;5.60;;;6.80;1.00;;;;;;5095777;28;20165;-68
2021/04/30 01:30:15;;;;;;;7.27;5.10;;;6.90;99.90;;;;;;5095734;28;20243;-68
2021/04/30 01:32:41;;;;;;;9.35;5.22;;;6.80;99.90;;;;;;5095824;28;20405;-68
2021/04/30 01:35:09;;;;;;;7.97;4.83;;;6.90;99.90;;;;;;5095405;28;20600;-68
2021/04/30 01:37:35;;;;;;;6.93;5.63;;;6.90;99.90;;;;;;5095424;28;20402;-68
2021/04/30 01:40:01;;;;;;;10.13;5.47;;;6.80;99.90;;;;;;5095461;28;20210;-68
2021/04/30 01:42:27;;;;;;;9.53;5.30;;;6.70;99.90;;;;;;5095519;28;20514;-68
2021/04/30 01:44:53;;;;;;;12.00;5.90;;;6.80;1.00;;;;;;5095695;28;20437;-68
2021/04/30 01:47:18;;;;;;;12.97;4.37;;;6.60;1.00;;;;;;5095293;28;20171;-68
2021/04/30 01:49:45;;;;;;;10.13;5.15;;;6.80;1.00;;;;;;5095303;28;20180;-68
2021/04/30 01:52:11;;;;;;;8.73;5.38;;;6.80;1.00;;;;;;5095472;28;20505;-68
2021/04/30 01:54:36;;;;;;;13.00;5.30;;;7.00;1.00;;;;;;5095132;28;20188;-68
2021/04/30 01:57:02;;;;;;;14.40;5.73;;;7.20;99.90;;;;;;5095178;28;20167;-68
2021/04/30 01:59:27;;;;;;;13.20;5.97;;;6.90;99.90;;;;;;5094888;28;20274;-68
2021/04/30 02:01:53;;;;;;;8.87;4.97;;;7.00;99.90;;;;;;5095008;28;20244;-68
2021/04/30 02:04:18;;;;;;;12.73;6.30;;;6.90;99.90;;;;;;5094952;28;20190;-67
2021/04/30 02:06:46;;;;;;;7.57;5.90;;;6.90;1.00;;;;;;5095100;28;20217;-68
2021/04/30 02:09:12;;;;;;;11.55;5.72;;;6.70;1.00;;;;;;5094969;28;20195;-68
2021/04/30 02:11:38;;;;;;;11.50;6.35;;;7.00;99.90;;;;;;5094982;28;20206;-68
2021/04/30 02:14:04;;;;;;;9.67;6.40;;;7.00;99.90;;;;;;5094853;28;20227;-67
2021/04/30 02:16:31;;;;;;;9.20;6.60;;;6.60;1.00;;;;;;5094937;28;20176;-68
2021/04/30 02:18:56;;;;;;;12.18;6.18;;;6.80;1.00;;;;;;5094778;28;20187;-68
2021/04/30 02:21:22;;;;;;;11.67;6.77;;;6.90;99.90;;;;;;5094758;28;20171;-68
2021/04/30 02:23:48;;;;;;;14.30;6.70;;;6.70;99.90;;;;;;5094709;28;20425;-68
2021/04/30 02:26:16;;;;;;;9.40;6.40;;;6.90;1.00;;;;;;5094785;28;20168;-67
2021/04/30 02:28:45;;;;;;;8.85;6.30;;;6.70;99.90;;;;;;5094883;28;20186;-67
2021/04/30 02:31:11;;;;;;;13.90;6.60;;;6.70;1.00;;;;;;5094562;28;20160;-68
2021/04/30 02:33:37;;;;;;;8.38;5.70;;;7.00;99.90;;;;;;5094221;28;20683;-68
2021/04/30 02:36:03;;;;;;;15.03;7.50;;;6.90;99.90;;;;;;5094021;28;20179;-68
2021/04/30 02:38:31;;;;;;;10.13;7.40;;;7.00;99.90;;;;;;5094683;28;20526;-67
2021/04/30 02:40:56;;;;;;;14.85;7.65;;;7.30;99.90;;;;;;5094387;28;20248;-68
2021/04/30 02:43:22;;;;;;;19.47;7.37;;;7.00;99.90;;;;;;5094491;28;20227;-68
2021/04/30 02:45:54;;;;;;;13.07;7.43;;;7.20;99.90;;;;;;5094251;28;20160;-68
2021/04/30 02:48:29;;;;;;;14.60;8.30;;;7.30;99.90;;;;;;5094499;28;20364;-68
2021/04/30 02:50:56;;;;;;;12.77;8.68;;;7.20;99.90;;;;;;5094416;28;20245;-68
2021/04/30 02:53:22;;;;;;;13.35;7.30;;;7.00;99.90;;;;;;5094069;28;20203;-68
2021/04/30 02:55:47;;;;;;;12.63;7.63;;;7.40;99.90;;;;;;5094333;28;20679;-68
2021/04/30 02:58:13;;;;;;;10.87;8.40;;;7.30;99.90;;;;;;5094706;28;20420;-68
2021/04/30 03:00:39;;;;;;;13.67;9.67;;;7.30;99.90;;;;;;5093924;28;20171;-67
2021/04/30 03:03:05;;;;;;;16.33;7.80;;;7.30;99.90;;;;;;5094201;28;20398;-67
2021/04/30 03:05:31;;;;;;;14.20;8.33;;;7.20;99.90;;;;;;5094202;28;20167;-66
2021/04/30 03:07:56;;;;;;;15.43;8.33;;;7.10;99.90;;;;;;5093746;28;20396;-68
2021/04/30 03:10:22;;;;;;;9.23;8.03;;;7.20;99.90;;;;;;5094063;28;20413;-68
2021/04/30 03:12:48;;;;;;;20.20;8.00;;;7.20;99.90;;;;;;5093835;28;20196;-67
2021/04/30 03:15:15;;;;;;;11.52;8.27;;;7.20;99.90;;;;;;5093635;28;20186;-68
2021/04/30 03:17:42;;;;;;;13.07;8.02;;;7.20;99.90;;;;;;5092353;28;20171;-67
2021/04/30 03:20:08;;;;;;;13.68;8.63;;;7.20;99.90;;;;;;5093866;28;20178;-67
2021/04/30 03:22:34;;;;;;;21.67;8.70;;;6.90;99.90;;;;;;5093527;28;20705;-66
2021/04/30 03:25:00;;;;;;;11.60;8.90;;;7.10;99.90;;;;;;5093499;28;20195;-68
2021/04/30 03:27:27;;;;;;;14.20;9.40;;;7.20;99.90;;;;;;5092289;28;20197;-67
2021/04/30 03:29:56;;;;;;;15.27;9.70;;;7.20;99.90;;;;;;5093790;28;20179;-67
2021/04/30 03:32:25;;;;;;;10.68;9.45;;;7.20;99.90;;;;;;5093448;28;20603;-68
2021/04/30 03:34:54;;;;;;;18.42;8.95;;;7.40;99.90;;;;;;5092027;28;20188;-68
2021/04/30 03:37:20;;;;;;;13.95;9.75;;;7.00;99.90;;;;;;5093432;28;20723;-68
2021/04/30 03:39:46;;;;;;;17.80;10.02;;;7.10;99.90;;;;;;5091944;28;20203;-68
2021/04/30 03:42:11;;;;;;;14.20;8.40;;;7.20;99.90;;;;;;5093341;28;20164;-68
2021/04/30 03:44:37;;;;;;;15.93;9.80;;;7.10;99.90;;;;;;5093227;28;20336;-68
2021/04/30 03:47:03;;;;;;;15.10;9.53;;;7.10;99.90;;;;;;5093032;28;20234;-68
2021/04/30 03:49:28;;;;;;;18.03;10.33;;;6.70;1.00;;;;;;5093242;28;20221;-67
2021/04/30 03:51:54;;;;;;;13.70;10.30;;;6.90;1.00;;;;;;5093421;28;20167;-67
2021/04/30 03:54:19;;;;;;;15.33;10.10;;;6.80;1.00;;;;;;5093020;28;20191;-68
2021/04/30 03:56:45;;;;;;;12.90;10.90;;;7.00;1.00;;;;;;5093048;28;20175;-68
2021/04/30 03:59:10;;;;;;;15.00;10.87;;;7.00;1.00;;;;;;5093131;28;20195;-68
2021/04/30 04:01:36;;;;;;;22.97;11.23;;;7.00;1.00;;;;;;5093252;28;20175;-68
2021/04/30 04:04:02;;;;;;;19.20;11.00;;;7.20;1.00;;;;;;5092815;28;20183;-68
2021/04/30 04:06:27;;;;;;;22.25;11.60;;;6.90;1.00;;;;;;5093077;28;20163;-68
2021/04/30 04:08:53;;;;;;;20.07;12.70;;;6.70;1.00;;;;;;5092843;28;20236;-68
2021/04/30 04:11:19;;;;;;;19.63;11.80;;;6.70;1.00;;;;;;5092920;28;20167;-68
2021/04/30 04:13:44;;;;;;;14.73;11.40;;;6.70;1.00;;;;;;5092927;28;20188;-68
2021/04/30 04:16:10;;;;;;;22.80;13.00;;;6.90;1.00;;;;;;5093120;28;20175;-68
2021/04/30 04:18:35;;;;;;;16.13;13.80;;;7.10;1.00;;;;;;5093050;28;20198;-68
2021/04/30 04:21:01;;;;;;;17.00;13.47;;;7.00;1.00;;;;;;5092838;28;20180;-68
2021/04/30 04:23:26;;;;;;;16.17;13.47;;;6.70;1.00;;;;;;5093067;28;20187;-68
2021/04/30 04:25:52;;;;;;;17.83;12.63;;;6.60;1.00;;;;;;5092718;28;20171;-68
2021/04/30 04:28:18;;;;;;;24.00;14.20;;;6.60;1.00;;;;;;5092720;28;20171;-68
2021/04/30 04:30:43;;;;;;;20.07;14.10;;;6.60;1.00;;;;;;5092760;28;20227;-67
2021/04/30 04:33:09;;;;;;;24.77;14.30;;;6.80;1.00;;;;;;5092897;28;20171;-67
2021/04/30 04:35:34;;;;;;;19.13;14.37;;;6.90;1.00;;;;;;5092619;28;20159;-66
2021/04/30 04:38:00;;;;;;;19.47;14.33;;;7.00;1.00;;;;;;5092906;28;20179;-66
2021/04/30 04:40:26;;;;;;;17.10;13.23;;;6.90;1.00;;;;;;5092998;28;20212;-67
2021/04/30 04:42:52;;;;;;;27.07;16.80;;;7.00;1.00;;;;;;5092800;28;20520;-67
2021/04/30 04:45:19;;;;;;;21.52;15.35;;;6.80;1.00;;;;;;5092459;28;20191;-68
2021/04/30 04:47:45;;;;;;;18.48;15.25;;;6.60;1.00;;;;;;5092478;28;20167;-68
2021/04/30 04:50:12;;;;;;;17.30;14.47;;;6.80;1.00;;;;;;5092693;28;20278;-68
2021/04/30 04:52:38;;;;;;;22.50;14.68;;;6.90;1.00;;;;;;5092772;28;20171;-68
2021/04/30 04:55:06;;;;;;;22.70;15.07;;;6.80;1.00;;;;;;5092484;28;20180;-68
2021/04/30 04:57:32;;;;;;;21.45;16.10;;;6.90;1.00;;;;;;5092798;28;20168;-68
2021/04/30 04:59:58;;;;;;;22.42;16.33;;;6.70;1.00;;;;;;5096161;28;20559;-68
2021/04/30 05:02:23;;;;;;;19.37;14.47;;;6.80;1.00;;;;;;5096324;28;20251;-68
2021/04/30 05:04:49;;;;;;;21.10;15.70;;;6.70;1.00;;;;;;5096059;28;20218;-68
2021/04/30 05:07:14;;;;;;;25.23;16.80;;;6.70;1.00;;;;;;5096232;28;20171;-68
2021/04/30 05:09:40;;;;;;;23.47;15.33;;;6.80;1.00;;;;;;5096221;28;20191;-68
2021/04/30 05:12:07;;;;;;;17.77;15.30;;;6.80;1.00;;;;;;5096174;28;20175;-67
2021/04/30 05:14:33;;;;;;;28.08;17.65;;;6.90;1.00;;;;;;5096159;28;20187;-68
2021/04/30 05:16:59;;;;;;;23.95;15.98;;;7.00;1.00;;;;;;5095827;28;20201;-68
2021/04/30 05:19:24;;;;;;;24.73;15.33;;;7.00;1.00;;;;;;5095818;28;20203;-68
2021/04/30 05:21:50;;;;;;;18.40;14.80;;;7.00;1.00;;;;;;5095560;28;20199;-68
2021/04/30 05:24:16;;;;;;;22.00;14.90;;;7.00;1.00;;;;;;5095284;28;20571;-68
2021/04/30 05:26:42;;;;;;;25.27;16.48;;;7.00;1.00;;;;;;5096300;28;20498;-68
2021/04/30 05:29:07;;;;;;;22.90;16.50;;;7.00;1.00;;;;;;5094128;28;20172;-68
2021/04/30 05:31:36;;;;;;;23.30;15.03;;;6.90;1.00;;;;;;5095584;28;20650;-67
2021/04/30 05:34:02;;;;;;;22.48;15.32;;;7.00;1.00;;;;;;5095732;28;20211;-67
2021/04/30 05:36:29;;;;;;;19.73;16.00;;;7.20;1.00;;;;;;5096767;28;20159;-67
2021/04/30 05:38:54;;;;;;;27.70;16.00;;;7.30;1.00;;;;;;5095103;28;20548;-68
2021/04/30 05:41:20;;;;;;;20.80;14.90;;;7.30;1.00;;;;;;5095431;28;20175;-68
2021/04/30 05:43:45;;;;;;;29.37;16.37;;;7.20;1.00;;;;;;5095545;28;20180;-67
2021/04/30 05:46:11;;;;;;;20.13;14.53;;;7.10;1.00;;;;;;5095232;28;20171;-68
2021/04/30 05:48:36;;;;;;;24.97;15.33;;;7.10;1.00;;;;;;5095107;28;20199;-68
2021/04/30 05:51:02;;;;;;;20.57;15.20;;;7.30;1.00;;;;;;5095018;28;20701;-68
2021/04/30 05:53:28;;;;;;;44.53;16.97;;;7.30;1.00;;;;;;5093589;28;20198;-67
2021/04/30 05:55:53;;;;;;;26.53;15.73;;;7.30;1.00;;;;;;5094945;28;20175;-68
2021/04/30 05:58:19;;;;;;;22.70;15.37;;;7.40;1.00;;;;;;5094682;28;20191;-68
2021/04/30 06:00:45;;;;;;;22.88;15.07;;;7.20;1.00;;;;;;5094852;28;20164;-68
2021/04/30 06:03:10;;;;;;;25.03;14.83;;;7.20;1.00;;;;;;5095086;28;20175;-68
2021/04/30 06:05:36;;;;;;;33.13;17.17;;;7.00;1.00;;;;;;5094588;28;20443;-68
2021/04/30 06:08:02;;;;;;;24.47;15.47;;;7.20;1.00;;;;;;5094390;28;20206;-67
2021/04/30 06:10:27;;;;;;;23.80;14.80;;;7.40;1.00;;;;;;5094548;28;20159;-67
2021/04/30 06:12:53;;;;;;;26.63;15.10;;;7.30;1.00;;;;;;5094893;28;20163;-68
2021/04/30 06:15:19;;;;;;;24.90;15.70;;;7.40;1.00;;;;;;5094523;28;20206;-67
2021/04/30 06:17:44;;;;;;;22.23;13.93;;;7.50;1.00;;;;;;5094551;28;20163;-68
2021/04/30 06:20:10;;;;;;;26.50;15.83;;;7.60;1.00;;;;;;5094697;28;20256;-67
2021/04/30 06:22:36;;;;;;;25.00;15.90;;;7.60;1.00;;;;;;5094740;28;20172;-68
2021/04/30 06:25:03;;;;;;;29.17;18.00;;;7.50;1.00;;;;;;5094199;28;20545;-67
2021/04/30 06:27:29;;;;;;;21.63;16.48;;;7.30;1.00;;;;;;5093986;28;20208;-68
2021/04/30 06:29:54;;;;;;;27.50;16.10;;;7.10;1.00;;;;;;5094462;28;20266;-68
2021/04/30 06:32:20;;;;;;;23.87;15.50;;;7.20;1.00;;;;;;5094497;28;20164;-67
2021/04/30 06:34:46;;;;;;;29.30;16.03;;;7.50;1.00;;;;;;5094279;28;20187;-68
2021/04/30 06:37:11;;;;;;;19.47;15.23;;;7.60;1.00;;;;;;5094299;28;20281;-68
2021/04/30 06:39:37;;;;;;;35.87;20.73;;;7.60;1.00;;;;;;5094181;28;20195;-68
2021/04/30 06:42:05;;;;;;;22.10;15.65;;;7.20;1.00;;;;;;5093984;28;20164;-68
2021/04/30 06:44:31;;;;;;;21.00;16.20;;;7.40;1.00;;;;;;5094033;28;20187;-67
2021/04/30 06:46:58;;;;;;;27.80;16.58;;;7.10;1.00;;;;;;5093796;28;20175;-68
2021/04/30 06:49:24;;;;;;;23.05;15.15;;;6.90;1.00;;;;;;5093389;28;20251;-69
2021/04/30 06:51:49;;;;;;;22.73;17.50;;;7.00;1.00;;;;;;5093897;28;20199;-68
2021/04/30 06:54:16;;;;;;;29.77;17.53;;;7.00;1.00;;;;;;5093658;28;20610;-68
2021/04/30 06:56:42;;;;;;;26.55;18.05;;;7.00;1.00;;;;;;5093786;28;20202;-67
2021/04/30 06:59:08;;;;;;;35.03;17.17;;;6.90;1.00;;;;;;5093583;28;20191;-69
2021/04/30 07:01:34;;;;;;;19.57;16.50;;;7.20;1.00;;;;;;5093829;28;20254;-69
2021/04/30 07:03:59;;;;;;;22.17;17.07;;;7.30;1.00;;;;;;5093675;28;20226;-68
2021/04/30 07:06:25;;;;;;;29.27;17.67;;;7.10;1.00;;;;;;5093829;28;20514;-68
2021/04/30 07:08:51;;;;;;;26.83;16.90;;;7.10;1.00;;;;;;5093382;28;20201;-68
2021/04/30 07:11:16;;;;;;;28.60;16.57;;;7.40;1.00;;;;;;5093481;28;20229;-69
2021/04/30 07:13:42;;;;;;;31.43;18.30;;;7.60;1.00;;;;;;5093372;28;20429;-69
2021/04/30 07:16:07;;;;;;;26.23;17.37;;;7.90;1.00;;;;;;5093264;28;20218;-70
2021/04/30 07:18:33;;;;;;;33.10;19.50;;;8.10;1.00;;;;;;5093107;28;20195;-68
2021/04/30 07:20:59;;;;;;;28.77;20.57;;;7.70;1.00;;;;;;5093233;28;20258;-68
2021/04/30 07:23:26;;;;;;;33.72;18.05;;;7.50;1.00;;;;;;5093643;28;20405;-68
2021/04/30 07:25:52;;;;;;;30.15;18.95;;;7.70;1.00;;;;;;5093342;28;20174;-68
2021/04/30 07:28:18;;;;;;;54.83;19.57;;;7.60;1.00;;;;;;5093500;28;20171;-68
2021/04/30 07:30:44;;;;;;;27.80;17.27;;;7.50;1.00;;;;;;5093287;28;20180;-68
2021/04/30 07:33:11;;;;;;;31.03;20.07;;;7.50;1.00;;;;;;5093437;28;20171;-68
2021/04/30 07:35:37;;;;;;;30.92;21.17;;;7.60;1.00;;;;;;5093563;28;20423;-68
2021/04/30 07:38:05;;;;;;;29.85;20.02;;;7.60;1.00;;;;;;5093125;28;20168;-67
2021/04/30 07:40:30;;;;;;;33.13;21.20;;;7.70;1.00;;;;;;5093258;28;20391;-68
2021/04/30 07:42:57;;;;;;;25.03;20.47;;;7.40;1.00;;;;;;5092968;28;20617;-68
2021/04/30 07:45:22;;;;;;;30.95;20.13;;;7.50;1.00;;;;;;5093193;28;20664;-68
2021/04/30 07:47:48;;;;;;;29.33;19.77;;;7.80;1.00;;;;;;5093186;28;20221;-66
2021/04/30 07:50:13;;;;;;;39.03;20.53;;;7.90;1.00;;;;;;5092872;28;20273;-68
2021/04/30 07:52:40;;;;;;;50.13;23.13;;;7.90;1.00;;;;;;5093019;28;20217;-68
2021/04/30 07:55:05;;;;;;;35.08;21.77;;;7.90;1.00;;;;;;5093009;28;20203;-67
2021/04/30 07:57:34;;;;;;;36.00;22.03;;;7.90;1.00;;;;;;5092399;28;20202;-68
2021/04/30 07:59:59;;;;;;;46.38;24.63;;;7.90;1.00;;;;;;5092542;28;20441;-68
2021/04/30 08:02:25;;;;;;;30.60;22.10;;;7.60;1.00;;;;;;5092355;28;20167;-68
2021/04/30 08:04:50;;;;;;;34.30;22.07;;;7.80;1.00;;;;;;5092052;28;20200;-68
2021/04/30 08:07:16;;;;;;;35.53;22.50;;;8.00;1.00;;;;;;5092569;28;20171;-68
2021/04/30 08:09:42;;;;;;;29.23;21.67;;;7.70;1.00;;;;;;5092751;28;20195;-67
2021/04/30 08:12:08;;;;;;;39.65;23.42;;;8.10;1.00;;;;;;5092555;28;20176;-67
2021/04/30 08:14:34;;;;;;;39.08;24.88;;;8.10;1.00;;;;;;5092555;28;20192;-67
2021/04/30 08:16:59;;;;;;;40.73;22.93;;;8.00;1.00;;;;;;5092824;28;20179;-67
2021/04/30 08:19:26;;;;;;;38.83;23.27;;;8.30;1.00;;;;;;5092511;28;20271;-66
2021/04/30 08:21:52;;;;;;;36.03;22.50;;;8.30;1.00;;;;;;5092392;28;20175;-68
2021/04/30 08:24:20;;;;;;;31.00;22.85;;;8.30;1.00;;;;;;5092530;28;20184;-67
2021/04/30 08:26:45;;;;;;;39.03;19.92;;;8.30;1.00;;;;;;5092672;28;20655;-68
2021/04/30 08:29:11;;;;;;;25.70;18.40;;;8.50;1.00;;;;;;5092537;28;20267;-68
2021/04/30 08:31:37;;;;;;;34.47;18.87;;;8.30;1.00;;;;;;5092185;28;20389;-66
2021/04/30 08:34:03;;;;;;;24.15;17.67;;;8.50;1.00;;;;;;5095438;28;20221;-67
2021/04/30 08:36:29;;;;;;;26.20;17.63;;;8.40;1.00;;;;;;5097245;28;20660;-67
2021/04/30 08:38:54;;;;;;;29.47;18.20;;;8.20;1.00;;;;;;5096691;28;20199;-67
2021/04/30 08:41:24;;;;;;;32.57;20.13;;;8.30;1.00;;;;;;5096761;28;20195;-67
2021/04/30 08:43:51;;;;;;;47.05;19.95;;;8.30;1.00;;;;;;5096502;28;20188;-67
2021/04/30 08:46:16;;;;;;;30.90;19.45;;;8.20;1.00;;;;;;5096426;28;20250;-67
2021/04/30 08:48:43;;;;;;;35.73;20.40;;;8.20;1.00;;;;;;5096247;28;20203;-68
2021/04/30 08:51:09;;;;;;;26.33;17.80;;;8.40;1.00;;;;;;5096773;28;20167;-66
2021/04/30 08:53:34;;;;;;;30.23;19.23;;;8.30;1.00;;;;;;5096116;28;20672;-67
2021/04/30 08:56:03;;;;;;;35.40;19.93;;;8.50;1.00;;;;;;5096101;28;20171;-67
2021/04/30 08:58:29;;;;;;;29.55;20.80;;;8.50;1.00;;;;;;5096040;28;20195;-67
2021/04/30 09:00:56;;;;;;;29.77;19.00;;;8.40;1.00;;;;;;5096519;28;20607;-68
2021/04/30 09:03:22;;;;;;;27.35;19.70;;;8.40;1.00;;;;;;5096145;28;20409;-67
2021/04/30 09:05:50;;;;;;;49.17;20.85;;;8.50;1.00;;;;;;5096041;28;20172;-68
2021/04/30 09:08:17;;;;;;;32.63;21.53;;;8.60;1.00;;;;;;5095968;28;20215;-68
2021/04/30 09:10:49;;;;;;;44.60;26.63;;;8.60;1.00;;;;;;5096127;28;20501;-67
2021/04/30 09:13:20;;;;;;;36.05;19.33;;;8.60;1.00;;;;;;5096124;28;20179;-67
2021/04/30 09:16:01;;;;;;;32.77;19.33;;;8.50;1.00;;;;;;5096136;28;20162;-67
2021/04/30 09:18:28;;;;;;;34.90;20.23;;;8.60;1.00;;;;;;5096075;28;20445;-68
2021/04/30 09:21:07;;;;;;;36.83;20.40;;;8.80;99.90;;;;;;5094406;28;20165;-68
2021/04/30 09:23:41;;;;;;;33.90;19.15;;;9.00;99.90;;;;;;5095465;28;20421;-68
2021/04/30 09:26:42;;;;;;;28.35;19.50;;;9.00;99.90;;;;;;5095611;28;20263;-67
2021/04/30 09:29:09;;;;;;;25.90;20.40;;;9.20;99.90;;;;;;5014060;28;20199;-68
2021/04/30 09:31:41;;;;;;;31.47;20.30;;;9.00;99.90;;;;;;5079784;28;20425;-68
2021/04/30 09:34:18;;;;;;;30.37;20.37;;;9.30;99.90;;;;;;5095570;28;20428;-67
2021/04/30 09:37:02;;;;;;;31.40;21.00;;;9.30;99.90;;;;;;5095766;28;20415;-68
2021/04/30 09:39:29;;;;;;;32.50;21.33;;;9.00;99.90;;;;;;5095204;28;20507;-68
2021/04/30 09:42:13;;;;;;;38.50;22.53;;;8.80;99.90;;;;;;5095538;28;20405;-68
2021/04/30 09:44:40;;;;;;;39.08;22.20;;;8.90;1.00;;;;;;5093253;28;20520;-68
2021/04/30 09:47:24;;;;;;;36.87;21.10;;;9.40;99.90;;;;;;5095311;28;20168;-67
2021/04/30 09:49:52;;;;;;;30.40;18.98;;;9.30;99.90;;;;;;5094963;28;20497;-67
2021/04/30 09:52:19;;;;;;;51.83;21.63;;;9.30;99.90;;;;;;5094992;28;20584;-67
2021/04/30 09:54:45;;;;;;;29.67;22.13;;;9.40;99.90;;;;;;5093733;28;20440;-67
2021/04/30 09:57:17;;;;;;;26.53;20.77;;;9.40;99.90;;;;;;5094886;28;20413;-68
2021/04/30 09:59:53;;;;;;;36.93;22.90;;;9.30;99.90;;;;;;5094849;28;20445;-68
2021/04/30 10:02:22;;;;;;;29.23;19.70;;;9.20;99.90;;;;;;5094480;28;20882;-68
2021/04/30 10:04:49;;;;;;;36.30;24.53;;;9.50;99.90;;;;;;5095198;28;20420;-68
2021/04/30 10:07:25;;;;;;;33.37;23.73;;;9.80;99.90;;;;;;5094737;28;20437;-68
2021/04/30 10:10:01;;;;;;;39.23;23.50;;;9.90;99.90;;;;;;5094314;28;20431;-68
2021/04/30 10:12:30;;;;;;;41.93;21.80;;;10.10;99.90;;;;;;5094738;28;20380;-67
2021/04/30 10:14:56;;;;;;;33.07;21.17;;;10.00;99.90;;;;;;5094252;28;20453;-68
2021/04/30 10:17:22;;;;;;;30.07;20.77;;;10.20;99.90;;;;;;5094502;28;20467;-67
2021/04/30 10:19:50;;;;;;;39.03;23.17;;;10.30;99.90;;;;;;5094555;28;20194;-66
2021/04/30 10:22:27;;;;;;;38.80;29.03;;;10.20;99.90;;;;;;5094642;28;20213;-66
2021/04/30 10:24:55;;;;;;;38.20;23.13;;;10.40;99.90;;;;;;5094710;28;20504;-67
2021/04/30 10:27:27;;;;;;;32.80;22.37;;;10.20;99.90;;;;;;5094294;28;20394;-67
2021/04/30 10:30:11;;;;;;;37.13;20.63;;;10.10;99.90;;;;;;5094172;28;20386;-67
2021/04/30 10:33:03;;;;;;;35.83;21.87;;;10.10;99.90;;;;;;5094207;28;20386;-68
2021/04/30 10:35:34;;;;;;;37.70;21.03;;;10.50;99.90;;;;;;5084616;28;20434;-68
2021/04/30 10:38:07;;;;;;;34.83;21.70;;;10.70;99.90;;;;;;5093885;28;20398;-68
2021/04/30 10:40:33;;;;;;;42.13;25.07;;;10.80;99.90;;;;;;5094726;28;20543;-68
2021/04/30 10:43:17;;;;;;;35.97;21.70;;;11.00;99.90;;;;;;5094633;28;20437;-68
2021/04/30 10:45:55;;;;;;;39.20;22.67;;;10.80;99.90;;;;;;5093978;28;20405;-67
2021/04/30 10:48:21;;;;;;;44.93;23.97;;;10.90;99.90;;;;;;5092481;28;20406;-68
2021/04/30 10:50:49;;;;;;;34.10;23.10;;;11.00;99.90;;;;;;5093716;28;20458;-67
2021/04/30 10:53:26;;;;;;;38.07;24.87;;;11.30;99.90;;;;;;5093844;28;20171;-68
2021/04/30 10:55:53;;;;;;;39.33;27.00;;;10.60;99.90;;;;;;5091111;28;20441;-68
2021/04/30 10:58:36;;;;;;;38.63;28.60;;;10.00;99.90;;;;;;5093747;28;20873;-68
2021/04/30 11:01:28;;;;;;;44.67;26.77;;;10.60;99.90;;;;;;5093891;28;20409;-67
2021/04/30 11:04:08;;;;;;;37.90;27.03;;;10.90;99.90;;;;;;5093830;28;20421;-69
2021/04/30 11:06:42;;;;;;;35.77;26.07;;;11.00;99.90;;;;;;5093531;28;20515;-67
2021/04/30 11:09:19;;;;;;;43.57;25.70;;;10.50;99.90;;;;;;5093515;28;20512;-67
2021/04/30 11:11:46;;;;;;;46.27;26.53;;;10.80;99.90;;;;;;5093882;28;20390;-68
2021/04/30 11:14:17;;;;;;;39.33;26.50;;;11.10;99.90;;;;;;5092787;28;20508;-66
2021/04/30 11:16:44;;;;;;;48.30;26.20;;;11.20;99.90;;;;;;5092956;28;20405;-69
2021/04/30 11:19:10;;;;;;;43.73;27.03;;;11.10;99.90;;;;;;5093389;28;20998;-70
2021/04/30 11:21:47;;;;;;;39.20;25.60;;;11.10;99.90;;;;;;5093063;28;20421;-68
2021/04/30 11:24:28;;;;;;;40.63;26.93;;;10.90;99.90;;;;;;5093547;28;20504;-69
2021/04/30 11:27:30;;;;;;;43.63;28.97;;;11.40;99.90;;;;;;5091473;28;20516;-71
2021/04/30 11:30:24;;;;;;;46.27;29.13;;;11.80;99.90;;;;;;5051144;28;20416;-67
2021/04/30 11:32:52;;;;;;;49.00;27.63;;;11.40;99.90;;;;;;5093122;28;20405;-69
2021/04/30 11:35:18;;;;;;;47.70;27.10;;;11.40;99.90;;;;;;5092088;28;20453;-67
2021/04/30 11:37:48;;;;;;;35.77;26.17;;;12.00;99.90;;;;;;5092730;28;20457;-68
2021/04/30 11:40:14;;;;;;;43.03;26.27;;;12.20;99.90;;;;;;5093267;28;20453;-68
2021/04/30 11:42:40;;;;;;;44.93;27.27;;;11.60;99.90;;;;;;5093041;28;20460;-70
2021/04/30 11:45:07;;;;;;;53.77;27.90;;;12.10;99.90;;;;;;5093134;28;20456;-67
2021/04/30 11:47:35;;;;;;;44.30;30.13;;;12.30;99.90;;;;;;5093273;28;20172;-70
2021/04/30 11:50:02;;;;;;;36.20;25.37;;;12.20;99.90;;;;;;5093197;28;20496;-67
2021/04/30 11:52:41;;;;;;;38.77;28.80;;;12.30;99.90;;;;;;5092877;28;20420;-66
2021/04/30 11:55:14;;;;;;;41.60;27.70;;;12.60;99.90;;;;;;5092668;28;20425;-67
2021/04/30 11:57:40;;;;;;;39.57;27.03;;;13.20;99.90;;;;;;5091754;28;20416;-68
2021/04/30 12:00:11;;;;;;;44.87;27.43;;;13.70;99.90;;;;;;5093330;28;20535;-67
2021/04/30 12:02:37;;;;;;;37.70;26.50;;;12.70;99.90;;;;;;5093743;28;20455;-66
2021/04/30 12:05:03;;;;;;;38.53;27.90;;;13.20;99.90;;;;;;5092778;28;20929;-68
2021/04/30 12:07:33;;;;;;;44.10;25.90;;;12.80;99.90;;;;;;5092828;28;20168;-68
2021/04/30 12:09:59;;;;;;;28.77;25.00;;;12.80;99.90;;;;;;5093164;28;20394;-68
2021/04/30 12:12:27;;;;;;;37.13;26.30;;;13.20;99.90;;;;;;5093415;28;20416;-69
2021/04/30 12:15:03;;;;;;;27.23;24.10;;;12.70;99.90;;;;;;5092120;28;20809;-68
2021/04/30 12:17:37;;;;;;;37.77;26.17;;;12.10;99.90;;;;;;5093204;28;20408;-67
2021/04/30 12:20:23;;;;;;;32.13;24.33;;;12.40;99.90;;;;;;5092781;28;20451;-70
2021/04/30 12:22:57;;;;;;;29.73;23.87;;;12.90;99.90;;;;;;5074697;28;20405;-69
2021/04/30 12:25:27;;;;;;;38.70;25.70;;;13.00;99.90;;;;;;5092499;28;20440;-69
2021/04/30 12:28:13;;;;;;;34.17;25.17;;;13.10;99.90;;;;;;5093241;28;20401;-68
2021/04/30 12:30:39;;;;;;;29.90;23.43;;;13.20;99.90;;;;;;5095785;28;20386;-67
2021/04/30 12:33:05;;;;;;;40.07;28.03;;;13.30;99.90;;;;;;5096148;28;20405;-69
2021/04/30 12:35:31;;;;;;;24.43;21.83;;;13.10;99.90;;;;;;5097136;28;20771;-67
2021/04/30 12:37:56;;;;;;;43.33;27.77;;;12.60;99.90;;;;;;5095689;28;20406;-69
2021/04/30 12:40:30;;;;;;;37.43;25.67;;;12.10;99.90;;;;;;5094418;28;20203;-67
2021/04/30 12:42:57;;;;;;;36.93;24.77;;;12.10;99.90;;;;;;5092354;28;20148;-67
2021/04/30 12:45:24;;;;;;;33.97;26.17;;;12.00;99.90;;;;;;5092321;28;20392;-67